Time;durP1;ratioP1;P1;durP2;ratioP2;P2;SDS_P1;SDS_P2;PMS_P1;PMS_P2;Temp;Humidity;BMP_temperature;BMP_pressure;BME280_temperature;BME280_humidity;BME280_pressure;Samples;Min_cycle;Max_cycle;Signal;HPM_P1;HPM_P2
2023/05/03 03:01:15;;;;;;;14.70;13.40;;;7.20;99.90;;;;;;5578420;23;20582;-80
2023/05/03 03:03:42;;;;;;;11.97;11.00;;;7.10;99.90;;;;;;4995607;28;20243;-80
2023/05/03 03:06:08;;;;;;;13.27;12.47;;;7.00;99.90;;;;;;5000688;28;20181;-81
2023/05/03 03:08:35;;;;;;;14.23;13.33;;;7.00;99.90;;;;;;5000687;28;20223;-80
2023/05/03 03:11:02;;;;;;;17.17;15.77;;;7.00;99.90;;;;;;4991843;28;20205;-80
2023/05/03 03:13:28;;;;;;;13.80;12.70;;;6.90;99.90;;;;;;4982581;28;20182;-81
2023/05/03 03:15:54;;;;;;;16.90;15.57;;;6.90;99.90;;;;;;4997041;28;20193;-79
2023/05/03 03:18:20;;;;;;;10.93;10.13;;;6.90;99.90;;;;;;4996600;28;20185;-81
2023/05/03 03:20:46;;;;;;;9.47;8.57;;;6.90;99.90;;;;;;4997348;28;20221;-80
2023/05/03 03:23:12;;;;;;;9.50;8.80;;;6.80;99.90;;;;;;4992631;28;20212;-80
2023/05/03 03:25:37;;;;;;;8.87;8.13;;;6.80;99.90;;;;;;4982951;28;20223;-81
2023/05/03 03:28:04;;;;;;;9.77;8.37;;;6.80;99.90;;;;;;4982518;28;20267;-81
2023/05/03 03:30:30;;;;;;;10.87;9.83;;;6.80;99.90;;;;;;4979452;28;20204;-80
2023/05/03 03:32:56;;;;;;;10.73;9.97;;;6.70;99.90;;;;;;4979384;28;20181;-81
2023/05/03 03:35:22;;;;;;;17.37;16.03;;;6.70;99.90;;;;;;4979635;28;20197;-81
2023/05/03 03:37:48;;;;;;;16.50;15.33;;;6.70;99.90;;;;;;4978869;28;20213;-79
2023/05/03 03:40:14;;;;;;;16.20;15.23;;;6.60;99.90;;;;;;4972095;28;20215;-73
2023/05/03 03:42:39;;;;;;;14.73;13.83;;;6.60;99.90;;;;;;4962527;28;20289;-72
2023/05/03 03:45:06;;;;;;;17.97;16.77;;;6.60;99.90;;;;;;4970625;28;20190;-75
2023/05/03 03:47:32;;;;;;;13.60;12.70;;;6.60;99.90;;;;;;4961405;28;20239;-73
2023/05/03 03:50:00;;;;;;;16.27;15.23;;;6.60;99.90;;;;;;4975252;28;20645;-72
2023/05/03 03:52:26;;;;;;;14.17;13.17;;;6.50;99.90;;;;;;4974470;28;20197;-75
2023/05/03 03:54:52;;;;;;;13.07;12.17;;;6.50;99.90;;;;;;4973676;28;20188;-73
2023/05/03 03:57:18;;;;;;;13.57;12.47;;;6.50;99.90;;;;;;4973037;28;20189;-72
2023/05/03 03:59:44;;;;;;;15.77;14.33;;;6.40;99.90;;;;;;4971953;28;20203;-73
2023/05/03 04:02:10;;;;;;;14.50;13.50;;;6.40;99.90;;;;;;4972844;28;20295;-72
2023/05/03 04:04:36;;;;;;;15.47;14.37;;;6.40;99.90;;;;;;4971407;28;20284;-72
2023/05/03 04:07:02;;;;;;;15.87;14.67;;;6.50;99.90;;;;;;4972566;28;20184;-75
2023/05/03 04:09:29;;;;;;;11.87;10.93;;;6.50;99.90;;;;;;4972852;28;20280;-73
2023/05/03 04:11:54;;;;;;;14.47;13.20;;;6.50;99.90;;;;;;4972265;28;20640;-73
2023/05/03 04:14:20;;;;;;;9.43;8.67;;;6.30;99.90;;;;;;4971502;28;20809;-73
2023/05/03 04:16:46;;;;;;;11.97;10.23;;;6.20;99.90;;;;;;4972360;28;20180;-73
2023/05/03 04:19:12;;;;;;;13.60;12.63;;;6.20;99.90;;;;;;4972271;28;20373;-73
2023/05/03 04:21:38;;;;;;;13.07;12.17;;;6.20;99.90;;;;;;4971320;28;20637;-73
2023/05/03 04:24:05;;;;;;;12.13;11.03;;;6.30;99.90;;;;;;4973136;28;20276;-76
2023/05/03 04:26:32;;;;;;;11.60;10.70;;;6.30;99.90;;;;;;4972392;28;20180;-75
2023/05/03 04:28:58;;;;;;;11.77;10.77;;;6.40;99.90;;;;;;4972292;28;20593;-75
2023/05/03 04:31:24;;;;;;;10.47;9.67;;;6.40;99.90;;;;;;4972394;28;20204;-76
2023/05/03 04:33:50;;;;;;;11.37;10.27;;;6.40;99.90;;;;;;4972157;28;20204;-75
2023/05/03 04:36:17;;;;;;;12.37;11.17;;;6.50;99.90;;;;;;4972452;28;20781;-76
2023/05/03 04:38:43;;;;;;;12.47;11.47;;;6.60;99.90;;;;;;4969695;28;20277;-75
2023/05/03 04:41:10;;;;;;;11.73;10.73;;;6.60;99.90;;;;;;4970537;28;20267;-76
2023/05/03 04:43:36;;;;;;;11.33;10.30;;;6.70;99.90;;;;;;4972736;28;20180;-76
2023/05/03 04:46:03;;;;;;;9.70;8.60;;;6.80;99.90;;;;;;4970852;28;20189;-76
2023/05/03 04:48:29;;;;;;;10.50;9.63;;;6.90;99.90;;;;;;4971277;28;20266;-75
2023/05/03 04:50:55;;;;;;;11.77;10.93;;;7.00;99.90;;;;;;4970509;28;20208;-75
2023/05/03 04:53:22;;;;;;;20.40;19.03;;;7.10;99.90;;;;;;4970894;28;20189;-75
2023/05/03 04:55:49;;;;;;;10.80;9.90;;;7.20;99.90;;;;;;4970731;28;20189;-75
2023/05/03 04:58:15;;;;;;;9.57;8.87;;;7.30;99.90;;;;;;4971878;28;20192;-76
2023/05/03 05:00:42;;;;;;;10.17;9.37;;;7.40;99.90;;;;;;4971501;28;20215;-75
2023/05/03 05:03:08;;;;;;;8.50;7.73;;;7.60;99.90;;;;;;4971890;28;20181;-77
2023/05/03 05:05:34;;;;;;;10.20;9.47;;;7.60;99.90;;;;;;4972149;28;20184;-76
2023/05/03 05:08:00;;;;;;;16.10;14.90;;;7.80;99.90;;;;;;4965774;28;20199;-76
2023/05/03 05:10:25;;;;;;;31.23;29.17;;;8.00;99.90;;;;;;4968449;28;20276;-77
2023/05/03 05:12:51;;;;;;;27.83;25.97;;;8.40;99.90;;;;;;4984144;28;20199;-76
2023/05/03 05:15:17;;;;;;;12.03;11.17;;;8.80;99.90;;;;;;4991075;28;20857;-76
2023/05/03 05:17:43;;;;;;;22.20;20.60;;;9.20;99.90;;;;;;4990186;28;20181;-76
2023/05/03 05:20:11;;;;;;;37.50;34.40;;;9.60;99.90;;;;;;4988150;28;20248;-76
2023/05/03 05:22:38;;;;;;;19.40;18.10;;;10.10;99.90;;;;;;4972224;28;20176;-78
2023/05/03 05:25:05;;;;;;;14.27;13.07;;;10.60;99.90;;;;;;4968138;28;20193;-76
2023/05/03 05:27:31;;;;;;;13.10;12.07;;;10.90;99.90;;;;;;4951639;28;20214;-76
2023/05/03 05:29:57;;;;;;;13.50;12.53;;;11.20;99.90;;;;;;4956047;28;20217;-76
2023/05/03 05:32:24;;;;;;;20.40;18.80;;;11.60;99.90;;;;;;4975694;28;20606;-75
2023/05/03 05:34:54;;;;;;;13.30;12.10;;;11.90;99.90;;;;;;4974811;28;20279;-76
2023/05/03 05:37:21;;;;;;;7.77;7.07;;;12.30;99.90;;;;;;4975535;28;20189;-75
2023/05/03 05:39:47;;;;;;;7.77;7.00;;;12.60;99.90;;;;;;4975723;28;20621;-76
2023/05/03 05:42:14;;;;;;;9.13;8.50;;;12.80;99.90;;;;;;4974480;28;20197;-76
2023/05/03 05:44:40;;;;;;;14.87;12.27;;;13.00;99.90;;;;;;4974915;28;20558;-76
2023/05/03 05:47:05;;;;;;;61.67;58.20;;;13.10;99.90;;;;;;4974146;28;20181;-77
2023/05/03 05:49:31;;;;;;;57.90;54.73;;;13.30;99.90;;;;;;4974086;28;20279;-75
2023/05/03 05:51:57;;;;;;;23.60;21.70;;;13.60;99.90;;;;;;4974452;28;20200;-76
2023/05/03 05:54:23;;;;;;;16.97;15.47;;;13.80;99.90;;;;;;4976379;28;20765;-76
2023/05/03 05:56:49;;;;;;;11.47;10.67;;;14.20;99.90;;;;;;4975498;28;20661;-77
2023/05/03 05:59:18;;;;;;;9.17;8.47;;;14.20;99.90;;;;;;4975359;28;20580;-76
2023/05/03 06:01:45;;;;;;;9.63;8.73;;;14.60;99.90;;;;;;4974035;28;20213;-76
2023/05/03 06:04:12;;;;;;;11.97;10.80;;;14.90;99.90;;;;;;4975730;28;20181;-75
2023/05/03 06:06:38;;;;;;;9.90;9.00;;;15.30;99.90;;;;;;4974221;28;20234;-77
2023/05/03 06:09:04;;;;;;;8.93;8.07;;;15.30;99.90;;;;;;4974654;28;20331;-76
2023/05/03 06:11:31;;;;;;;10.73;9.87;;;15.40;99.90;;;;;;4973729;28;20209;-76
2023/05/03 06:13:57;;;;;;;12.43;11.43;;;15.60;99.90;;;;;;4975070;28;20181;-76
2023/05/03 06:16:23;;;;;;;12.97;11.97;;;15.60;99.90;;;;;;4973920;28;20586;-75
2023/05/03 06:18:49;;;;;;;13.03;12.03;;;15.40;99.90;;;;;;4974376;28;20181;-76
2023/05/03 06:21:15;;;;;;;14.73;13.57;;;15.40;99.90;;;;;;4975133;28;20295;-77
2023/05/03 06:23:41;;;;;;;17.60;16.37;;;15.40;99.90;;;;;;4975656;28;20185;-78
2023/05/03 06:26:07;;;;;;;17.13;15.63;;;15.60;99.90;;;;;;4975309;28;20236;-77
2023/05/03 06:28:33;;;;;;;15.13;13.93;;;16.00;99.90;;;;;;4973237;28;20184;-77
2023/05/03 06:31:00;;;;;;;15.70;14.27;;;16.20;99.90;;;;;;4974778;28;20209;-76
2023/05/03 06:33:26;;;;;;;14.93;13.87;;;16.40;99.90;;;;;;4974653;28;20228;-76
2023/05/03 06:35:52;;;;;;;14.93;13.77;;;16.70;99.90;;;;;;4973535;28;20185;-76
2023/05/03 06:38:18;;;;;;;14.57;13.37;;;16.40;99.90;;;;;;4972732;28;20235;-76
2023/05/03 06:40:45;;;;;;;16.93;15.73;;;16.30;99.90;;;;;;4974316;28;20224;-77
2023/05/03 06:43:11;;;;;;;16.43;14.90;;;16.60;99.90;;;;;;4978060;28;20289;-75
2023/05/03 06:45:38;;;;;;;16.03;14.70;;;17.00;99.90;;;;;;4977595;28;20603;-76
2023/05/03 06:48:05;;;;;;;16.57;15.37;;;16.60;99.90;;;;;;4983010;28;20667;-76
2023/05/03 06:50:31;;;;;;;13.73;12.53;;;16.70;99.90;;;;;;4974232;28;20224;-77
2023/05/03 06:52:57;;;;;;;13.47;12.30;;;16.40;99.90;;;;;;4974577;28;20196;-77
2023/05/03 06:55:23;;;;;;;15.60;14.27;;;16.20;99.90;;;;;;4974841;28;20706;-77
2023/05/03 06:57:51;;;;;;;16.20;14.73;;;16.10;99.90;;;;;;4974550;28;20264;-76
2023/05/03 07:00:17;;;;;;;17.93;16.33;;;16.40;99.90;;;;;;4974185;28;20228;-77
2023/05/03 07:02:43;;;;;;;16.17;14.83;;;16.70;99.90;;;;;;4974617;28;20284;-77
2023/05/03 07:05:09;;;;;;;16.70;15.13;;;17.00;99.90;;;;;;4973548;28;20277;-77
2023/05/03 07:07:35;;;;;;;13.83;12.63;;;17.60;99.90;;;;;;4973920;28;20189;-76
2023/05/03 07:10:01;;;;;;;12.90;11.87;;;18.10;99.90;;;;;;4974052;28;20864;-77
2023/05/03 07:12:27;;;;;;;12.85;11.65;;;18.50;99.90;;;;;;4974147;28;20233;-76
2023/05/03 07:14:56;;;;;;;14.73;13.32;;;19.10;99.90;;;;;;4974650;28;20211;-76
2023/05/03 07:17:23;;;;;;;16.90;15.55;;;19.20;99.90;;;;;;4972844;28;20280;-76
2023/05/03 07:19:50;;;;;;;15.00;13.75;;;18.90;99.90;;;;;;4973913;28;20201;-77
2023/05/03 07:22:17;;;;;;;13.52;12.52;;;19.10;99.90;;;;;;4973185;28;20236;-77
2023/05/03 07:24:43;;;;;;;18.27;16.95;;;18.80;99.90;;;;;;4974044;28;20209;-77
2023/05/03 07:27:09;;;;;;;12.43;11.17;;;18.10;99.90;;;;;;4974538;28;20181;-77
2023/05/03 07:29:35;;;;;;;12.27;11.17;;;17.90;99.90;;;;;;4972400;28;20528;-76
2023/05/03 07:32:02;;;;;;;13.80;12.70;;;18.30;99.90;;;;;;4974667;28;20715;-74
2023/05/03 07:34:28;;;;;;;15.88;14.65;;;18.40;99.90;;;;;;4976029;28;20181;-74
2023/05/03 07:36:54;;;;;;;10.05;9.13;;;18.30;99.90;;;;;;4973510;28;20204;-75
2023/05/03 07:39:20;;;;;;;10.53;8.40;;;17.60;99.90;;;;;;4973300;28;20211;-74
2023/05/03 07:41:46;;;;;;;12.47;9.10;;;17.50;99.90;;;;;;4973556;28;20205;-75
2023/05/03 07:44:12;;;;;;;16.63;15.30;;;17.30;99.90;;;;;;4972027;28;20189;-75
2023/05/03 07:46:38;;;;;;;21.20;19.67;;;17.10;99.90;;;;;;4973401;28;20251;-75
2023/05/03 07:49:07;;;;;;;11.80;10.80;;;17.30;99.90;;;;;;4972704;28;20173;-76
2023/05/03 07:51:35;;;;;;;15.37;14.20;;;17.60;99.90;;;;;;4968782;28;20295;-75
2023/05/03 07:54:01;;;;;;;23.10;21.70;;;17.20;99.90;;;;;;4961371;28;20180;-74
2023/05/03 07:56:28;;;;;;;22.87;21.37;;;16.90;99.90;;;;;;4972246;28;20181;-75
2023/05/03 07:58:53;;;;;;;23.17;21.70;;;17.10;99.90;;;;;;4974245;28;20177;-76
2023/05/03 08:01:20;;;;;;;22.23;20.83;;;16.90;99.90;;;;;;4971870;28;20216;-75
2023/05/03 08:03:49;;;;;;;23.37;21.57;;;17.10;99.90;;;;;;4971246;28;20276;-75
2023/05/03 08:06:16;;;;;;;19.27;17.93;;;17.20;99.90;;;;;;4972971;28;20177;-73
2023/05/03 08:08:42;;;;;;;18.00;16.50;;;17.40;99.90;;;;;;4972469;28;20181;-74
2023/05/03 08:11:09;;;;;;;11.50;10.60;;;18.00;99.90;;;;;;4971483;28;20236;-75
2023/05/03 08:13:35;;;;;;;10.30;9.00;;;18.30;99.90;;;;;;4972436;28;20657;-75
2023/05/03 08:16:01;;;;;;;12.97;9.93;;;18.40;99.90;;;;;;4971326;28;20717;-76
2023/05/03 08:18:27;;;;;;;9.13;8.40;;;18.20;99.90;;;;;;4970746;28;20603;-75
2023/05/03 08:20:53;;;;;;;14.03;13.07;;;18.40;99.90;;;;;;4971560;28;20220;-75
2023/05/03 08:23:20;;;;;;;16.52;15.32;;;18.90;99.90;;;;;;4972023;28;20173;-75
2023/05/03 08:25:47;;;;;;;9.70;8.98;;;19.50;99.90;;;;;;4972550;28;20213;-76
2023/05/03 08:28:13;;;;;;;10.30;9.23;;;19.80;99.90;;;;;;4972283;28;20208;-76
2023/05/03 08:30:40;;;;;;;8.85;8.13;;;19.60;99.90;;;;;;4972630;28;20739;-75
2023/05/03 08:33:08;;;;;;;8.02;7.38;;;20.00;99.90;;;;;;4970850;28;20181;-76
2023/05/03 08:35:34;;;;;;;10.38;9.57;;;19.80;99.90;;;;;;4971265;28;20185;-75
2023/05/03 08:38:01;;;;;;;11.30;10.43;;;19.30;99.90;;;;;;4971867;28;20185;-76
2023/05/03 08:40:27;;;;;;;9.77;9.07;;;19.30;99.90;;;;;;4972431;28;20212;-76
2023/05/03 08:42:55;;;;;;;11.32;10.23;;;19.50;99.90;;;;;;4972665;28;20173;-75
2023/05/03 08:45:24;;;;;;;17.37;16.27;;;19.30;99.90;;;;;;4963349;28;20300;-75
2023/05/03 08:47:54;;;;;;;16.90;15.43;;;18.80;99.90;;;;;;4969221;28;20272;-74
2023/05/03 08:50:20;;;;;;;16.83;15.63;;;18.80;99.90;;;;;;4972362;28;20190;-76
2023/05/03 08:52:46;;;;;;;10.60;9.50;;;18.50;99.90;;;;;;4970693;28;20184;-75
2023/05/03 08:55:12;;;;;;;9.07;8.20;;;18.10;99.90;;;;;;4971084;28;20189;-76
2023/05/03 08:57:38;;;;;;;15.57;14.37;;;17.80;99.90;;;;;;4970931;28;20628;-75
2023/05/03 09:00:09;;;;;;;16.63;15.47;;;17.70;99.90;;;;;;4972312;28;20205;-75
2023/05/03 09:02:38;;;;;;;17.40;15.97;;;17.70;99.90;;;;;;4971111;28;20695;-74
2023/05/03 09:05:14;;;;;;;21.27;19.87;;;18.00;99.90;;;;;;4973096;28;20192;-75
2023/05/03 09:07:58;;;;;;;27.33;25.53;;;17.60;99.90;;;;;;4966920;28;20563;-76
2023/05/03 09:10:25;;;;;;;26.77;25.17;;;17.50;99.90;;;;;;4970158;28;20193;-75
2023/05/03 09:12:58;;;;;;;30.50;28.50;;;17.50;99.90;;;;;;4985365;28;20196;-74
2023/05/03 09:15:25;;;;;;;30.63;28.83;;;17.70;99.90;;;;;;4971037;28;20184;-74
2023/05/03 09:18:07;;;;;;;30.57;28.47;;;17.80;99.90;;;;;;4970906;28;20267;-74
2023/05/03 09:20:35;;;;;;;33.63;31.43;;;17.80;99.90;;;;;;4971002;28;20689;-73
2023/05/03 09:23:01;;;;;;;28.37;26.37;;;17.80;99.90;;;;;;4970649;28;20173;-73
2023/05/03 09:25:44;;;;;;;22.10;20.40;;;18.20;99.90;;;;;;4972060;28;20192;-72
2023/05/03 09:28:11;;;;;;;15.70;14.47;;;18.60;99.90;;;;;;4970582;28;20188;-73
2023/05/03 09:30:37;;;;;;;15.33;14.07;;;18.80;99.90;;;;;;4970738;28;20232;-73
2023/05/03 09:33:03;;;;;;;16.13;14.87;;;18.60;99.90;;;;;;4971920;28;20664;-72
2023/05/03 09:35:31;;;;;;;13.23;11.97;;;18.60;99.90;;;;;;4971762;28;20327;-74
2023/05/03 09:37:57;;;;;;;10.20;9.20;;;19.20;99.90;;;;;;4971624;28;20271;-73
2023/05/03 09:40:24;;;;;;;14.65;13.30;;;19.50;99.90;;;;;;4970816;28;20209;-73
2023/05/03 09:43:10;;;;;;;15.07;14.07;;;19.70;99.90;;;;;;4970593;28;20177;-73
2023/05/03 09:45:39;;;;;;;17.07;15.70;;;19.30;99.90;;;;;;4971970;28;20655;-73
2023/05/03 09:48:06;;;;;;;16.00;14.88;;;19.70;99.90;;;;;;4971385;28;20196;-73
2023/05/03 09:50:33;;;;;;;15.23;13.93;;;19.90;99.90;;;;;;4971018;28;20209;-74
2023/05/03 09:53:05;;;;;;;13.45;12.35;;;19.90;99.90;;;;;;4970639;28;20225;-73
2023/05/03 09:55:40;;;;;;;13.90;12.80;;;20.10;99.90;;;;;;4972016;28;20185;-74
2023/05/03 09:58:07;;;;;;;14.68;13.48;;;19.90;99.90;;;;;;4971511;28;20185;-74
2023/05/03 10:00:37;;;;;;;15.57;14.15;;;19.80;99.90;;;;;;4972974;28;20244;-75
2023/05/03 10:03:21;;;;;;;16.25;15.00;;;20.50;99.90;;;;;;4970649;28;20185;-76
2023/05/03 10:05:50;;;;;;;15.88;14.68;;;20.40;99.90;;;;;;4971647;28;20181;-74
2023/05/03 10:08:39;;;;;;;16.13;14.88;;;20.40;99.90;;;;;;4969932;28;20184;-74
2023/05/03 10:11:08;;;;;;;15.77;14.57;;;20.50;99.90;;;;;;4970237;28;20215;-73
2023/05/03 10:13:35;;;;;;;13.90;12.80;;;20.40;99.90;;;;;;4971327;28;20227;-75
2023/05/03 10:16:14;;;;;;;9.70;8.77;;;20.80;99.90;;;;;;4971295;28;20185;-74
2023/05/03 10:19:17;;;;;;;10.63;9.57;;;21.10;99.90;;;;;;4959063;28;20189;-75
2023/05/03 10:22:10;;;;;;;11.82;10.82;;;21.10;99.90;;;;;;4896861;29;20241;-75
2023/05/03 10:25:01;;;;;;;14.93;13.77;;;20.30;99.90;;;;;;4977813;28;20740;-75
2023/05/03 10:27:45;;;;;;;10.60;9.35;;;20.40;99.90;;;;;;4975089;28;20272;-75
2023/05/03 10:30:31;;;;;;;11.23;9.27;;;21.10;99.90;;;;;;4973428;28;20173;-74
2023/05/03 10:32:58;;;;;;;12.82;12.02;;;21.20;99.90;;;;;;4974249;28;20189;-74
2023/05/03 10:35:28;;;;;;;14.25;13.15;;;21.60;99.10;;;;;;4974794;28;20185;-74
2023/05/03 10:37:58;;;;;;;10.38;9.50;;;21.70;98.80;;;;;;4972727;28;20207;-74
2023/05/03 10:40:40;;;;;;;13.30;12.32;;;21.60;97.70;;;;;;4973196;28;20217;-74
2023/05/03 10:43:06;;;;;;;10.82;10.02;;;20.30;99.50;;;;;;4975006;28;20279;-74
2023/05/03 10:45:33;;;;;;;12.50;11.65;;;20.70;99.80;;;;;;4973264;28;20208;-74
2023/05/03 10:48:11;;;;;;;10.65;9.85;;;21.40;98.90;;;;;;4974202;28;20551;-75
2023/05/03 10:50:42;;;;;;;10.68;9.77;;;21.70;97.50;;;;;;4963779;28;20221;-74
2023/05/03 10:53:28;;;;;;;8.63;7.93;;;22.00;97.00;;;;;;4970780;28;20693;-75
2023/05/03 10:56:08;;;;;;;8.88;7.47;;;22.60;95.20;;;;;;4966255;28;20185;-76
2023/05/03 10:58:45;;;;;;;10.00;9.30;;;23.20;93.40;;;;;;4973773;28;20184;-74
2023/05/03 11:01:16;;;;;;;22.75;21.42;;;23.60;92.70;;;;;;4973372;28;20280;-74
2023/05/03 11:03:54;;;;;;;13.70;12.55;;;23.10;91.70;;;;;;4974187;28;20184;-74
2023/05/03 11:06:50;;;;;;;44.15;41.65;;;22.70;92.60;;;;;;4969395;28;20201;-74
2023/05/03 11:09:16;;;;;;;66.20;62.83;;;23.00;90.60;;;;;;4965440;28;20194;-74
2023/05/03 11:11:42;;;;;;;50.67;47.70;;;23.50;88.80;;;;;;4977858;28;20201;-76
2023/05/03 11:14:09;;;;;;;78.68;74.68;;;22.90;90.60;;;;;;4976356;28;20185;-72
2023/05/03 11:16:35;;;;;;;77.10;73.13;;;23.30;88.40;;;;;;4974211;28;20601;-72
2023/05/03 11:19:02;;;;;;;65.75;62.25;;;23.30;86.10;;;;;;4973533;28;20185;-75
2023/05/03 11:21:28;;;;;;;53.47;50.53;;;22.50;89.50;;;;;;4973500;28;20295;-74
2023/05/03 11:23:53;;;;;;;15.90;14.90;;;21.90;89.50;;;;;;4957277;28;20277;-74
2023/05/03 11:26:24;;;;;;;13.35;12.50;;;22.10;91.10;;;;;;4953968;28;20240;-74
2023/05/03 11:28:50;;;;;;;27.08;25.55;;;22.70;90.40;;;;;;4963879;28;20184;-75
2023/05/03 11:31:16;;;;;;;65.00;61.63;;;23.50;87.50;;;;;;4972016;28;20201;-74
2023/05/03 11:33:42;;;;;;;63.65;60.25;;;23.90;85.10;;;;;;4973909;28;20235;-72
2023/05/03 11:36:09;;;;;;;22.42;21.25;;;24.40;83.20;;;;;;4972331;28;20210;-73
2023/05/03 11:38:37;;;;;;;33.30;31.52;;;24.90;78.50;;;;;;4971448;28;20189;-73
2023/05/03 11:41:17;;;;;;;19.00;17.90;;;24.70;78.50;;;;;;4971956;28;20795;-73
2023/05/03 11:43:45;;;;;;;11.65;11.00;;;24.60;78.20;;;;;;4973280;28;20180;-73
2023/05/03 11:46:14;;;;;;;9.85;9.27;;;24.90;77.20;;;;;;4973203;28;20276;-74
2023/05/03 11:48:43;;;;;;;12.77;11.98;;;24.70;75.30;;;;;;4975779;28;20200;-73
2023/05/03 11:51:12;;;;;;;13.13;12.15;;;24.10;77.00;;;;;;4972985;28;20251;-74
2023/05/03 11:53:40;;;;;;;11.57;10.68;;;24.20;77.40;;;;;;4959422;28;20194;-74
2023/05/03 11:56:08;;;;;;;13.43;12.65;;;24.60;74.80;;;;;;4953848;28;20572;-72
2023/05/03 11:58:34;;;;;;;12.88;12.07;;;24.60;76.50;;;;;;4952334;28;20773;-73
2023/05/03 12:01:00;;;;;;;16.02;15.13;;;24.50;75.70;;;;;;4966171;28;20209;-73
2023/05/03 12:03:29;;;;;;;9.30;8.70;;;24.30;75.40;;;;;;4973382;28;20227;-73
2023/05/03 12:05:55;;;;;;;6.93;6.32;;;25.10;75.40;;;;;;4972067;28;20231;-72
2023/05/03 12:08:31;;;;;;;6.85;6.22;;;26.30;71.90;;;;;;4972908;28;20291;-72
2023/05/03 12:10:57;;;;;;;6.75;6.13;;;27.10;65.80;;;;;;4972651;28;20212;-73
2023/05/03 12:13:34;;;;;;;5.68;5.35;;;27.30;64.60;;;;;;4973010;28;20189;-72
2023/05/03 12:16:02;;;;;;;8.93;7.97;;;27.30;63.30;;;;;;4972061;28;20275;-72
2023/05/03 12:18:52;;;;;;;12.05;11.35;;;27.10;59.30;;;;;;4972716;28;20188;-72
2023/05/03 12:21:24;;;;;;;9.07;8.43;;;26.80;58.80;;;;;;4972580;28;20213;-74
2023/05/03 12:23:51;;;;;;;8.73;8.02;;;26.80;57.60;;;;;;4973156;28;20177;-72
2023/05/03 12:26:18;;;;;;;8.55;7.85;;;26.90;57.20;;;;;;4973290;28;20233;-72
2023/05/03 12:28:48;;;;;;;10.93;10.27;;;26.50;58.40;;;;;;4971882;28;20189;-72
2023/05/03 12:31:14;;;;;;;8.80;8.27;;;26.90;58.30;;;;;;4971232;28;20693;-72
2023/05/03 12:33:41;;;;;;;10.70;10.00;;;27.00;57.90;;;;;;4971451;28;20187;-72
2023/05/03 12:36:07;;;;;;;9.45;8.48;;;26.90;58.20;;;;;;4972506;28;20235;-72
2023/05/03 12:38:34;;;;;;;7.80;7.40;;;27.50;57.30;;;;;;4971973;28;20262;-72
2023/05/03 12:41:00;;;;;;;10.57;9.98;;;27.90;56.50;;;;;;4970958;28;20217;-72
2023/05/03 12:43:25;;;;;;;9.57;8.82;;;28.60;52.80;;;;;;4972579;28;20680;-73
2023/05/03 12:45:51;;;;;;;10.40;9.80;;;28.60;52.40;;;;;;4972500;28;20208;-72
2023/05/03 12:48:17;;;;;;;14.90;14.07;;;29.00;51.70;;;;;;4972012;28;20207;-74
2023/05/03 12:50:43;;;;;;;14.40;13.15;;;28.80;51.40;;;;;;4972125;28;20729;-73
2023/05/03 12:53:08;;;;;;;18.05;17.08;;;28.70;51.50;;;;;;4973700;28;20188;-73
2023/05/03 12:55:34;;;;;;;14.30;13.40;;;28.20;51.00;;;;;;4972603;28;20185;-72
2023/05/03 12:58:01;;;;;;;13.45;12.65;;;27.10;52.00;;;;;;4972376;28;20887;-71
2023/05/03 13:00:27;;;;;;;17.13;16.23;;;26.30;53.70;;;;;;4972151;28;20205;-72
2023/05/03 13:02:53;;;;;;;16.77;15.88;;;26.00;53.80;;;;;;4972086;28;20228;-72
2023/05/03 13:05:19;;;;;;;15.23;14.30;;;26.20;54.10;;;;;;4971174;28;20181;-72
2023/05/03 13:07:46;;;;;;;12.95;12.25;;;27.40;52.60;;;;;;4972191;28;20185;-72
2023/05/03 13:10:13;;;;;;;9.73;9.13;;;27.60;50.50;;;;;;4972096;28;20196;-72
2023/05/03 13:12:39;;;;;;;18.63;17.73;;;28.50;49.80;;;;;;4972233;28;20196;-73
2023/05/03 13:15:06;;;;;;;24.20;22.85;;;29.90;46.70;;;;;;4972197;28;20185;-73
2023/05/03 13:17:31;;;;;;;23.45;22.27;;;29.90;45.60;;;;;;4974708;28;20565;-73
2023/05/03 13:19:58;;;;;;;26.65;25.25;;;29.70;45.10;;;;;;4975201;28;20213;-74
2023/05/03 13:22:23;;;;;;;19.05;18.05;;;29.40;46.60;;;;;;4972188;28;20216;-74
2023/05/03 13:24:49;;;;;;;17.55;16.67;;;30.30;45.70;;;;;;4972331;28;20185;-73
2023/05/03 13:27:16;;;;;;;19.35;18.35;;;31.00;45.10;;;;;;4970883;28;20169;-73
2023/05/03 13:29:43;;;;;;;27.60;26.20;;;30.60;45.30;;;;;;4972021;28;20189;-73
2023/05/03 13:32:09;;;;;;;21.15;19.90;;;29.60;45.50;;;;;;4971880;28;20205;-70
2023/05/03 13:34:35;;;;;;;21.63;20.52;;;28.50;46.60;;;;;;4971998;28;20184;-71
2023/05/03 13:37:01;;;;;;;18.80;17.90;;;28.60;46.80;;;;;;4971646;28;20184;-72
2023/05/03 13:39:27;;;;;;;32.22;30.42;;;29.10;44.20;;;;;;4970551;28;20195;-73
2023/05/03 13:41:52;;;;;;;19.98;18.88;;;28.80;47.40;;;;;;4971542;28;20208;-73
2023/05/03 13:44:19;;;;;;;21.25;20.15;;;29.80;45.30;;;;;;4972064;28;20216;-73
2023/05/03 13:46:45;;;;;;;19.88;18.88;;;30.30;42.60;;;;;;4971729;28;20599;-73
2023/05/03 13:49:11;;;;;;;12.63;12.00;;;30.20;41.50;;;;;;4971478;28;20196;-73
2023/05/03 13:51:37;;;;;;;13.60;12.90;;;30.90;41.00;;;;;;4975648;28;20208;-75
2023/05/03 13:54:06;;;;;;;7.90;7.47;;;31.00;42.30;;;;;;4974576;28;20185;-75
2023/05/03 13:56:35;;;;;;;5.35;5.05;;;31.40;41.10;;;;;;4975589;28;20185;-73
2023/05/03 13:59:01;;;;;;;4.05;3.83;;;31.30;41.60;;;;;;4973740;28;20236;-73
2023/05/03 14:01:28;;;;;;;5.00;4.20;;;32.10;39.30;;;;;;4974628;28;20299;-73
2023/05/03 14:03:54;;;;;;;5.07;4.82;;;31.60;37.90;;;;;;4975234;28;20192;-73
2023/05/03 14:06:22;;;;;;;7.13;6.75;;;30.40;39.20;;;;;;4980537;28;20664;-74
2023/05/03 14:08:48;;;;;;;10.77;10.07;;;29.30;40.40;;;;;;4994021;28;20213;-74
2023/05/03 14:11:15;;;;;;;7.45;7.05;;;29.20;42.00;;;;;;4980964;28;20220;-72
2023/05/03 14:13:41;;;;;;;13.30;12.65;;;30.10;39.90;;;;;;4973797;28;20649;-74
2023/05/03 14:16:14;;;;;;;8.43;8.02;;;29.70;41.80;;;;;;4974979;28;20220;-72
2023/05/03 14:18:39;;;;;;;5.10;4.90;;;30.10;40.70;;;;;;4974747;28;20185;-72
2023/05/03 14:21:05;;;;;;;5.28;3.70;;;31.10;39.90;;;;;;4973163;28;20213;-72
2023/05/03 14:23:31;;;;;;;3.97;3.67;;;31.70;38.30;;;;;;4974562;28;20188;-73
2023/05/03 14:25:57;;;;;;;4.43;4.10;;;31.30;38.60;;;;;;4973525;28;20208;-73
2023/05/03 14:28:24;;;;;;;6.90;6.50;;;30.80;38.50;;;;;;4974403;28;20687;-74
2023/05/03 14:30:50;;;;;;;6.82;6.32;;;30.60;39.20;;;;;;4973229;28;20193;-73
2023/05/03 14:33:16;;;;;;;10.43;9.93;;;30.00;39.90;;;;;;4974587;28;20197;-73
2023/05/03 14:35:42;;;;;;;18.73;17.73;;;29.30;41.30;;;;;;4974563;28;20181;-73
2023/05/03 14:38:08;;;;;;;18.67;17.67;;;28.70;42.10;;;;;;4972585;28;20191;-74
2023/05/03 14:40:34;;;;;;;19.52;18.35;;;28.40;42.70;;;;;;4973162;28;20713;-71
2023/05/03 14:43:00;;;;;;;18.60;17.70;;;28.40;41.40;;;;;;4974571;28;20185;-72
2023/05/03 14:45:26;;;;;;;37.83;35.95;;;26.60;43.30;;;;;;4974444;28;20657;-74
2023/05/03 14:47:52;;;;;;;32.80;31.20;;;26.60;43.50;;;;;;4972650;28;20672;-72
2023/05/03 14:50:18;;;;;;;23.10;22.00;;;27.20;43.30;;;;;;4974310;28;20177;-73
2023/05/03 14:52:44;;;;;;;17.08;16.17;;;28.50;41.20;;;;;;4974182;28;20185;-72
2023/05/03 14:55:10;;;;;;;19.17;18.20;;;28.30;39.00;;;;;;4974200;28;20204;-72
2023/05/03 14:57:37;;;;;;;19.00;18.08;;;27.70;41.10;;;;;;4973687;28;20185;-72
2023/05/03 15:00:06;;;;;;;19.83;18.73;;;28.50;41.40;;;;;;4973831;28;20208;-72
2023/05/03 15:02:32;;;;;;;24.25;23.05;;;29.00;40.70;;;;;;4985261;28;20258;-74
2023/05/03 15:04:58;;;;;;;26.38;24.85;;;29.20;40.60;;;;;;4992337;28;20200;-71
2023/05/03 15:07:24;;;;;;;27.48;26.10;;;29.10;41.30;;;;;;4986956;28;20181;-71
2023/05/03 15:09:50;;;;;;;25.50;24.20;;;29.00;42.30;;;;;;4973905;28;20564;-72
2023/05/03 15:12:16;;;;;;;20.58;19.55;;;29.10;41.60;;;;;;4973879;28;20580;-72
2023/05/03 15:14:42;;;;;;;24.15;22.95;;;27.10;42.70;;;;;;4973626;28;20575;-74
2023/05/03 15:17:08;;;;;;;27.05;25.75;;;26.90;43.60;;;;;;4972559;28;20185;-73
2023/05/03 15:19:34;;;;;;;27.77;26.33;;;27.60;42.90;;;;;;4972304;28;20200;-75
2023/05/03 15:22:00;;;;;;;33.97;32.22;;;27.80;42.40;;;;;;4977334;28;20204;-74
2023/05/03 15:24:25;;;;;;;40.83;38.85;;;26.80;43.60;;;;;;4978577;28;20181;-74
2023/05/03 15:26:51;;;;;;;39.65;37.60;;;27.00;43.40;;;;;;4974765;28;20289;-76
2023/05/03 15:29:17;;;;;;;39.15;37.22;;;26.80;43.40;;;;;;4975912;28;20205;-75
2023/05/03 15:31:43;;;;;;;36.92;35.08;;;27.20;43.70;;;;;;4975335;28;20357;-75
2023/05/03 15:34:11;;;;;;;23.10;21.90;;;27.90;42.50;;;;;;4972824;28;20192;-75
2023/05/03 15:36:37;;;;;;;22.17;21.10;;;28.30;41.50;;;;;;4973306;28;20216;-75